createdAt,value
2023-03-31T00:01:39.967Z,8.3
2023-03-31T00:06:46.289Z,8.9
2023-03-31T00:11:52.588Z,8.3
2023-03-31T00:16:58.909Z,8.9
2023-03-31T00:22:05.241Z,8.6
2023-03-31T00:27:10.705Z,8.3
2023-03-31T00:32:16.143Z,8.3
2023-03-31T00:37:22.488Z,8.6
2023-03-31T00:42:28.792Z,8.3
2023-03-31T00:47:35.102Z,8.6
2023-03-31T00:52:41.431Z,8.3
2023-03-31T00:57:47.754Z,8.6
2023-03-31T01:02:54.084Z,8.6
2023-03-31T01:08:00.397Z,8
2023-03-31T01:13:06.733Z,8.3
2023-03-31T01:18:13.073Z,8.6
2023-03-31T01:23:19.408Z,8.9
2023-03-31T01:28:25.714Z,8.3
2023-03-31T01:33:32.057Z,8.3
2023-03-31T01:38:37.484Z,8.3
2023-03-31T01:43:43.821Z,8.6
2023-03-31T01:48:50.156Z,8.9
2023-03-31T01:53:56.465Z,8.6
2023-03-31T01:59:02.804Z,8.6
2023-03-31T02:04:09.104Z,8.3
2023-03-31T02:09:15.443Z,8.3
2023-03-31T02:14:21.793Z,8.3
2023-03-31T02:19:28.071Z,8.3
2023-03-31T02:24:34.408Z,8
2023-03-31T02:29:40.722Z,8.6
2023-03-31T02:34:47.066Z,8.3
2023-03-31T02:39:53.381Z,8.3
2023-03-31T02:44:58.819Z,8.3
2023-03-31T02:50:05.145Z,8.6
2023-03-31T02:55:11.462Z,8
2023-03-31T03:00:17.803Z,8.6
2023-03-31T03:05:24.116Z,8.3
2023-03-31T03:10:30.441Z,8
2023-03-31T03:15:36.770Z,8.6
2023-03-31T03:20:43.104Z,8.6
2023-03-31T03:25:49.405Z,8.3
2023-03-31T03:30:55.744Z,8.6
2023-03-31T03:36:02.076Z,8.6
2023-03-31T03:41:08.380Z,8
2023-03-31T03:46:14.710Z,8.3
2023-03-31T03:51:20.199Z,8.3
2023-03-31T03:56:26.482Z,8.6
2023-03-31T04:01:32.808Z,8.3
2023-03-31T04:06:39.147Z,8.6
2023-03-31T04:11:45.465Z,8
2023-03-31T04:16:51.827Z,8
2023-03-31T04:21:58.110Z,8.3
2023-03-31T04:27:04.433Z,8.3
2023-03-31T04:32:10.751Z,8.6
2023-03-31T04:37:17.069Z,8
2023-03-31T04:42:23.413Z,8
2023-03-31T04:47:29.752Z,8
2023-03-31T04:52:36.179Z,8
2023-03-31T04:57:41.495Z,8
2023-03-31T05:02:47.872Z,8
2023-03-31T05:07:54.170Z,8
2023-03-31T05:13:00.486Z,8
2023-03-31T05:18:06.812Z,8
2023-03-31T05:23:13.139Z,8.3
2023-03-31T05:28:19.445Z,8
2023-03-31T05:33:25.786Z,8.3
2023-03-31T05:38:32.142Z,8
2023-03-31T05:43:38.441Z,8
2023-03-31T05:48:44.761Z,7.6
2023-03-31T05:53:51.077Z,8
2023-03-31T05:58:57.464Z,8
2023-03-31T06:04:02.877Z,8
2023-03-31T06:09:09.186Z,8.3
2023-03-31T06:14:15.498Z,8.3
2023-03-31T06:19:21.837Z,8
2023-03-31T06:24:28.287Z,8.3
2023-03-31T06:29:34.474Z,8.3
2023-03-31T06:34:40.808Z,8
2023-03-31T06:39:47.130Z,8
2023-03-31T06:44:53.583Z,8.3
2023-03-31T06:49:59.803Z,8.6
2023-03-31T06:55:06.081Z,8.3
2023-03-31T07:00:12.479Z,8
2023-03-31T07:05:18.811Z,7
2023-03-31T07:15:30.562Z,8.3
2023-03-31T07:20:36.874Z,8
2023-03-31T07:25:43.197Z,8
2023-03-31T07:30:49.504Z,7.6
2023-03-31T07:35:54.971Z,7.6
2023-03-31T07:41:01.293Z,8.6
2023-03-31T07:46:07.626Z,8.3
2023-03-31T07:51:13.938Z,7.6
2023-03-31T07:56:20.320Z,7.6
2023-03-31T08:01:26.597Z,7.3
2023-03-31T08:06:32.948Z,8.3
2023-03-31T08:11:39.245Z,8
2023-03-31T08:16:45.651Z,8
2023-03-31T08:21:51.934Z,8.6
2023-03-31T08:26:58.220Z,8
2023-03-31T08:32:04.512Z,8
2023-03-31T08:37:10.841Z,7
2023-03-31T08:42:17.147Z,8.3
2023-03-31T08:47:23.485Z,8
2023-03-31T08:52:28.925Z,8.6
2023-03-31T08:57:35.237Z,8
2023-03-31T09:02:41.566Z,8
2023-03-31T09:07:47.942Z,8
2023-03-31T09:12:54.206Z,8.3
2023-03-31T09:18:00.546Z,8
2023-03-31T09:23:06.869Z,8
2023-03-31T09:28:13.217Z,8.3
2023-03-31T09:33:19.518Z,8.3
2023-03-31T09:38:25.855Z,8.3
2023-03-31T09:43:32.160Z,8.6
2023-03-31T09:48:38.487Z,8.3
2023-03-31T09:53:44.818Z,8.6
2023-03-31T09:58:50.263Z,8.6
2023-03-31T10:03:56.586Z,8.6
2023-03-31T10:09:03.027Z,8
2023-03-31T10:14:09.232Z,8.6
2023-03-31T10:19:14.784Z,8.6
2023-03-31T10:24:20.128Z,8.6
2023-03-31T10:29:25.587Z,8
2023-03-31T10:34:31.048Z,8.3
2023-03-31T10:39:37.341Z,8.3
2023-03-31T10:44:43.661Z,8.3
2023-03-31T10:49:49.990Z,8.6
2023-03-31T10:54:56.298Z,8.9
2023-03-31T11:00:02.760Z,8.6
2023-03-31T11:05:08.960Z,8.9
2023-03-31T11:10:15.280Z,8.9
2023-03-31T11:15:21.685Z,9.2
2023-03-31T11:20:27.938Z,8.6
2023-03-31T11:25:34.291Z,9.2
2023-03-31T11:30:40.583Z,8.6
2023-03-31T11:35:46.902Z,9.2
2023-03-31T11:40:52.332Z,9.2
2023-03-31T11:45:58.648Z,8.6
2023-03-31T11:51:04.979Z,8.9
2023-03-31T11:56:11.296Z,8.9
2023-03-31T12:01:17.626Z,9.2
2023-03-31T12:06:23.954Z,8.9
2023-03-31T12:11:30.277Z,8.6
2023-03-31T12:16:35.733Z,8.9
2023-03-31T12:21:41.202Z,8.9
2023-03-31T12:26:47.542Z,8.9
2023-03-31T12:31:53.840Z,8.9
2023-03-31T12:37:00.147Z,9.2
2023-03-31T12:42:06.478Z,8.9
2023-03-31T12:47:12.795Z,8.9
2023-03-31T12:52:18.290Z,9.2
2023-03-31T12:57:23.712Z,9.2
2023-03-31T13:02:30.074Z,9.2
2023-03-31T13:07:36.350Z,9.2
2023-03-31T13:12:42.669Z,8.9
2023-03-31T13:17:49.291Z,9.2
2023-03-31T13:22:55.484Z,8.6
2023-03-31T13:33:07.982Z,8.9
2023-03-31T13:38:14.276Z,9.2
2023-03-31T13:43:20.788Z,9.2
2023-03-31T13:48:27.147Z,8.9
2023-03-31T13:53:33.386Z,9.2
2023-03-31T13:58:39.730Z,9.6
2023-03-31T14:03:45.177Z,9.6
2023-03-31T14:08:51.516Z,9.2
2023-03-31T14:13:57.822Z,9.2
2023-03-31T14:19:04.124Z,8.9
2023-03-31T14:24:10.469Z,9.2
2023-03-31T14:29:16.800Z,8.9
2023-03-31T14:34:23.194Z,9.2
2023-03-31T14:39:29.450Z,9.2
2023-03-31T14:44:35.612Z,9.2
2023-03-31T14:49:41.931Z,8.9
2023-03-31T14:54:48.527Z,8.9
2023-03-31T14:59:54.759Z,9.6
2023-03-31T15:05:01.083Z,8.9
2023-03-31T15:10:06.400Z,9.2
2023-03-31T16:16:28.739Z,8.9
2023-03-31T16:21:35.058Z,8.9
2023-03-31T16:26:40.516Z,8.9
2023-03-31T16:31:46.002Z,9.2
2023-03-31T16:36:51.287Z,9.9
2023-03-31T16:41:56.859Z,9.2
2023-03-31T16:47:03.000Z,9.2
2023-03-31T16:52:09.539Z,9.2
2023-03-31T16:57:15.754Z,9.2
2023-03-31T17:02:21.964Z,9.9
2023-03-31T17:07:28.448Z,8.9
2023-03-31T17:12:34.959Z,9.6
2023-03-31T17:17:40.955Z,9.6
2023-03-31T17:22:47.452Z,8.9
2023-03-31T17:33:00.058Z,9.2
2023-03-31T17:38:06.444Z,8.9
2023-03-31T17:43:12.580Z,8.9
2023-03-31T17:48:18.243Z,9.9
2023-03-31T17:53:24.564Z,9.2
2023-03-31T17:58:30.892Z,8.9
2023-03-31T18:03:37.147Z,9.2
2023-03-31T18:08:43.599Z,9.2
2023-03-31T18:13:49.610Z,9.2
2023-03-31T18:18:55.939Z,9.2
2023-03-31T18:24:02.255Z,9.2
2023-03-31T18:29:07.949Z,9.2
2023-03-31T18:34:13.409Z,9.2
2023-03-31T18:39:18.889Z,9.2
2023-03-31T18:44:24.261Z,9.2
2023-03-31T18:49:30.605Z,9.6
2023-03-31T18:54:36.737Z,9.6
2023-03-31T18:59:43.165Z,9.2
2023-03-31T19:04:49.596Z,9.2
2023-03-31T19:09:55.872Z,9.6
2023-03-31T19:15:02.181Z,8.3
2023-03-31T19:20:08.518Z,8.9
2023-03-31T19:25:14.839Z,9.2
2023-03-31T19:30:21.188Z,8.9
2023-03-31T19:35:26.473Z,9.2
2023-03-31T19:40:31.919Z,9.2
2023-03-31T19:45:38.403Z,8.9
2023-03-31T19:50:44.575Z,9.2
2023-03-31T19:55:51.011Z,9.2
2023-03-31T20:00:57.359Z,9.6
2023-03-31T20:06:03.749Z,8.9
2023-03-31T20:11:10.046Z,9.2
2023-03-31T20:16:16.369Z,9.6
2023-03-31T20:21:22.639Z,9.2
2023-03-31T20:26:28.997Z,8.9
2023-03-31T20:31:35.144Z,8.9
2023-03-31T20:36:41.565Z,8.9
2023-03-31T20:41:47.793Z,8.9
2023-03-31T20:46:53.387Z,8.9
2023-03-31T20:51:59.567Z,9.6
2023-03-31T20:57:06.076Z,8.9
2023-03-31T21:02:12.360Z,9.2
2023-03-31T21:07:18.692Z,8.9
2023-03-31T21:12:24.851Z,8.9
2023-03-31T21:17:31.349Z,8.6
2023-03-31T21:22:37.520Z,8.9
2023-03-31T21:27:43.977Z,8.9
2023-03-31T21:32:50.297Z,9.2
2023-03-31T21:37:56.603Z,8.6
2023-03-31T21:43:02.981Z,8.6
2023-03-31T21:48:09.303Z,8.9
2023-03-31T21:53:14.574Z,8.6
2023-03-31T21:58:20.905Z,8.6
2023-03-31T22:03:27.393Z,8.3
2023-03-31T22:08:33.573Z,8.9
2023-03-31T22:13:40.017Z,9.6
2023-03-31T22:18:46.371Z,8.6
2023-03-31T22:23:52.668Z,8.9
2023-03-31T22:28:58.837Z,8.6
2023-03-31T22:34:05.319Z,9.2
2023-03-31T22:39:11.664Z,8.6
2023-03-31T22:44:17.968Z,8.3
2023-03-31T22:49:24.300Z,9.2
2023-03-31T22:54:30.513Z,8.6
2023-03-31T22:59:37.030Z,8.6
2023-03-31T23:04:42.268Z,8.6
2023-03-31T23:09:48.791Z,8.9
2023-03-31T23:14:55.075Z,8.6
2023-03-31T23:20:01.238Z,8.9
2023-03-31T23:25:07.684Z,9.6
2023-03-31T23:30:13.935Z,8.6
2023-03-31T23:35:20.324Z,8.9
2023-03-31T23:40:26.617Z,8.6
2023-03-31T23:45:33.022Z,8.6
2023-03-31T23:50:39.204Z,8.9
2023-03-31T23:55:45.496Z,9.2
